Time;durP1;ratioP1;P1;durP2;ratioP2;P2;SDS_P1;SDS_P2;PMS_P1;PMS_P2;Temp;Humidity;BMP_temperature;BMP_pressure;BME280_temperature;BME280_humidity;BME280_pressure;Samples;Min_cycle;Max_cycle;Signal;HPM_P1;HPM_P2
2023/10/21 00:08:19;;;;;;;2.60;0.90;;;2.30;99.90;;;;;;1946327;72;27053;-90
2023/10/21 00:11:09;;;;;;;0.77;0.73;;;2.30;99.90;;;;;;1925000;73;25249;-91
2023/10/21 00:39:43;;;;;;;1.03;0.80;;;2.40;99.90;;;;;;1871154;74;27298;-88
2023/10/21 01:04:24;;;;;;;0.77;0.67;;;2.40;99.90;;;;;;2075433;67;26246;-90
2023/10/21 01:07:17;;;;;;;0.60;0.60;;;2.50;99.90;;;;;;2023028;70;25238;-90
2023/10/21 01:10:07;;;;;;;1.43;0.60;;;2.60;99.90;;;;;;2012241;71;25212;-90
2023/10/21 01:12:56;;;;;;;0.70;0.70;;;2.50;99.90;;;;;;2008852;70;25201;-90
2023/10/21 01:15:45;;;;;;;2.13;0.80;;;2.60;99.90;;;;;;1996792;70;25276;-91
2023/10/21 01:18:34;;;;;;;0.60;0.60;;;2.60;99.90;;;;;;2011856;71;25224;-91
2023/10/21 01:21:22;;;;;;;2.30;0.60;;;2.60;99.90;;;;;;2023785;70;25218;-90
2023/10/21 01:24:11;;;;;;;2.00;0.70;;;2.60;99.90;;;;;;1984280;70;25266;-90
2023/10/21 01:27:00;;;;;;;0.50;0.50;;;2.60;99.90;;;;;;2022310;69;25245;-90
2023/10/21 01:29:49;;;;;;;2.90;0.60;;;2.60;99.90;;;;;;1995257;70;25184;-90
2023/10/21 01:32:38;;;;;;;1.00;0.87;;;2.60;99.90;;;;;;2029456;69;25196;-90
2023/10/21 01:35:26;;;;;;;2.50;1.00;;;2.60;99.90;;;;;;2028810;69;25174;-90
2023/10/21 01:38:15;;;;;;;3.00;0.90;;;2.50;99.90;;;;;;2031021;69;25176;-90
2023/10/21 02:05:24;;;;;;;5.47;0.87;;;2.60;99.90;;;;;;1890046;75;26510;-89
2023/10/21 02:27:47;;;;;;;0.77;0.60;;;2.60;99.90;;;;;;1908261;74;26642;-90
2023/10/21 02:33:27;;;;;;;4.80;1.10;;;2.60;99.90;;;;;;1947886;72;27398;-90
2023/10/21 02:36:16;;;;;;;1.43;0.80;;;2.60;99.90;;;;;;1922403;73;25735;-90
2023/10/21 02:41:56;;;;;;;1.30;0.80;;;2.60;99.90;;;;;;1938382;72;27561;-91
2023/10/21 02:44:45;;;;;;;0.80;0.70;;;2.60;99.90;;;;;;1843252;77;25258;-91
2023/10/21 02:50:19;;;;;;;2.50;0.90;;;2.70;99.90;;;;;;1955907;72;26994;-91
2023/10/21 02:53:08;;;;;;;1.10;0.70;;;2.80;99.90;;;;;;1916611;73;25261;-90
2023/10/21 02:55:56;;;;;;;3.80;1.23;;;2.80;99.90;;;;;;1919975;73;25223;-90
2023/10/21 02:58:44;;;;;;;4.60;0.83;;;2.80;99.90;;;;;;1918802;73;25282;-90
2023/10/21 03:01:33;;;;;;;1.57;0.70;;;2.80;99.90;;;;;;1916896;73;25210;-90
2023/10/21 03:04:22;;;;;;;0.80;0.80;;;2.80;99.90;;;;;;1937506;73;25166;-90
2023/10/21 03:07:11;;;;;;;0.63;0.63;;;2.80;99.90;;;;;;1922054;73;25296;-90
2023/10/21 03:10:00;;;;;;;4.73;0.87;;;2.80;99.90;;;;;;1917967;73;25175;-89
2023/10/21 03:12:48;;;;;;;1.97;0.70;;;2.80;99.90;;;;;;1925001;73;25710;-90
2023/10/21 03:15:37;;;;;;;1.57;1.00;;;2.80;99.90;;;;;;1926408;73;25658;-91
2023/10/21 03:18:27;;;;;;;0.87;0.73;;;2.80;99.90;;;;;;1926164;73;25244;-91
2023/10/21 03:21:15;;;;;;;0.90;0.60;;;2.90;99.90;;;;;;1923626;73;26597;-90
2023/10/21 03:24:05;;;;;;;0.60;0.47;;;3.00;99.90;;;;;;1925994;73;25225;-91
2023/10/21 03:26:53;;;;;;;1.23;0.77;;;3.00;99.90;;;;;;1923986;73;25634;-91
2023/10/21 03:29:42;;;;;;;1.03;0.83;;;3.00;99.90;;;;;;1922029;73;25186;-90
2023/10/21 03:32:32;;;;;;;2.50;0.70;;;3.00;99.90;;;;;;1919236;73;25284;-91
2023/10/21 03:39:15;;;;;;;3.60;0.77;;;3.00;99.90;;;;;;2077453;67;26408;-91
2023/10/21 03:42:04;;;;;;;5.33;0.70;;;3.00;99.90;;;;;;2008626;69;25248;-90
2023/10/21 03:44:53;;;;;;;0.60;0.60;;;3.00;99.90;;;;;;2033751;69;25143;-91
2023/10/21 03:47:42;;;;;;;1.97;0.90;;;3.10;99.90;;;;;;2031161;69;25224;-91
2023/10/21 04:04:33;;;;;;;7.50;1.17;;;3.00;99.90;;;;;;1931736;72;26984;-90
2023/10/21 04:24:29;;;;;;;0.87;0.67;;;2.70;99.90;;;;;;1950167;72;27197;-91
2023/10/21 04:27:18;;;;;;;0.57;0.57;;;2.70;99.90;;;;;;1929171;73;25314;-90
2023/10/21 04:30:09;;;;;;;5.93;1.30;;;2.70;99.90;;;;;;1920682;73;25232;-90
2023/10/21 04:32:58;;;;;;;5.23;0.53;;;2.60;99.90;;;;;;1917248;73;25315;-91
2023/10/21 04:35:47;;;;;;;3.80;0.90;;;2.60;99.90;;;;;;1890546;75;25717;-90
2023/10/21 05:38:09;;;;;;;2.00;1.00;;;3.30;99.90;;;;;;1984085;71;26856;-90
2023/10/21 05:40:59;;;;;;;5.67;0.83;;;3.30;99.90;;;;;;1973240;72;25271;-90
2023/10/21 05:43:47;;;;;;;1.40;0.60;;;3.40;99.90;;;;;;2022751;70;25337;-91
2023/10/21 05:46:36;;;;;;;2.90;0.70;;;3.40;99.90;;;;;;2005343;70;25247;-91
2023/10/21 05:49:25;;;;;;;1.53;0.77;;;3.40;99.90;;;;;;1962961;71;25216;-90
2023/10/21 05:52:14;;;;;;;3.53;1.00;;;3.40;99.90;;;;;;2013786;70;25161;-91
2023/10/21 05:55:04;;;;;;;5.83;0.77;;;3.40;99.90;;;;;;2025828;70;25207;-91
2023/10/21 05:57:53;;;;;;;1.23;0.70;;;3.40;99.90;;;;;;1967422;71;25169;-91
2023/10/21 06:00:41;;;;;;;1.67;1.20;;;3.40;99.90;;;;;;2019797;70;25285;-91
2023/10/21 06:03:30;;;;;;;1.60;1.10;;;3.40;99.90;;;;;;1984718;71;25224;-91
2023/10/21 06:06:19;;;;;;;2.13;0.73;;;3.40;99.90;;;;;;2027350;70;25714;-90
2023/10/21 06:13:51;;;;;;;2.67;1.00;;;3.50;99.90;;;;;;1980560;71;26553;-91
2023/10/21 06:16:39;;;;;;;3.90;1.40;;;3.50;99.90;;;;;;2029268;69;25154;-90
2023/10/21 06:19:28;;;;;;;3.27;0.73;;;3.50;99.90;;;;;;2028388;69;25222;-89
2023/10/21 06:22:17;;;;;;;1.50;0.80;;;3.50;99.90;;;;;;2015121;69;25133;-90
2023/10/21 06:25:07;;;;;;;2.90;1.00;;;3.50;99.90;;;;;;2010564;70;25513;-89
2023/10/21 06:27:56;;;;;;;2.37;1.30;;;3.50;99.90;;;;;;2011879;70;25280;-90
2023/10/21 06:30:45;;;;;;;0.97;0.80;;;3.50;99.90;;;;;;2023110;69;25170;-90
2023/10/21 06:33:33;;;;;;;8.47;1.20;;;3.50;99.90;;;;;;2029232;69;25178;-90
2023/10/21 06:39:08;;;;;;;3.20;1.00;;;3.60;99.90;;;;;;1943353;72;27418;-91
2023/10/21 06:41:57;;;;;;;1.07;0.60;;;3.60;99.90;;;;;;1935892;72;25312;-91
2023/10/21 07:00:37;;;;;;;5.10;2.07;;;3.70;99.90;;;;;;1893889;74;27657;-90
2023/10/21 07:03:26;;;;;;;6.63;1.23;;;3.70;99.90;;;;;;1849795;77;25245;-90
2023/10/21 07:06:18;;;;;;;3.07;1.20;;;3.70;99.90;;;;;;1859086;75;25231;-91
2023/10/21 07:25:41;;;;;;;3.23;1.20;;;3.70;99.90;;;;;;1999698;70;27077;-91
2023/10/21 07:28:30;;;;;;;1.73;0.97;;;3.90;99.90;;;;;;1879558;75;25246;-91
2023/10/21 07:31:19;;;;;;;1.60;0.83;;;3.90;99.90;;;;;;1892286;74;25344;-90
2023/10/21 07:34:08;;;;;;;4.67;1.20;;;3.90;99.90;;;;;;1884943;75;25793;-91
2023/10/21 07:41:16;;;;;;;0.80;0.80;;;3.90;99.90;;;;;;1998594;71;26363;-91
2023/10/21 07:44:06;;;;;;;3.50;1.53;;;4.00;99.90;;;;;;1930281;73;25740;-91
2023/10/21 07:46:55;;;;;;;1.37;0.80;;;4.10;99.90;;;;;;2003284;70;25316;-90
2023/10/21 07:49:43;;;;;;;1.93;0.70;;;4.10;99.90;;;;;;2015837;70;25154;-91
2023/10/21 07:52:32;;;;;;;3.47;0.93;;;4.10;99.90;;;;;;2012490;70;25246;-91
2023/10/21 07:55:21;;;;;;;2.50;0.70;;;4.10;99.90;;;;;;2012186;70;25281;-91
2023/10/21 08:02:54;;;;;;;1.70;1.03;;;4.10;99.90;;;;;;1999182;71;27041;-91
2023/10/21 08:05:44;;;;;;;2.03;0.80;;;4.10;99.90;;;;;;1960434;72;25235;-91
2023/10/21 08:08:34;;;;;;;0.90;0.90;;;4.10;99.90;;;;;;1961277;72;25239;-90
2023/10/21 08:11:23;;;;;;;3.67;0.97;;;4.10;99.90;;;;;;1954170;72;25310;-90
2023/10/21 08:14:11;;;;;;;4.87;0.67;;;4.10;99.90;;;;;;1964487;72;25286;-90
2023/10/21 08:17:00;;;;;;;1.70;0.70;;;4.10;99.90;;;;;;1921791;73;25264;-91
2023/10/21 08:19:49;;;;;;;2.93;0.47;;;4.10;99.90;;;;;;1959521;72;25717;-91
2023/10/21 08:22:38;;;;;;;4.33;1.17;;;4.20;99.90;;;;;;1954121;72;25724;-91
2023/10/21 08:25:26;;;;;;;3.43;1.03;;;4.30;99.90;;;;;;1957651;72;26247;-90
2023/10/21 08:28:15;;;;;;;4.13;1.40;;;4.30;99.90;;;;;;1968123;72;25225;-91
2023/10/21 08:31:03;;;;;;;1.70;1.17;;;4.30;99.90;;;;;;1959568;72;25288;-91
2023/10/21 08:33:52;;;;;;;1.50;0.90;;;4.30;99.90;;;;;;1963991;72;25213;-91
2023/10/21 08:36:42;;;;;;;4.10;1.20;;;4.20;99.90;;;;;;1960203;72;25230;-91
2023/10/21 09:07:49;;;;;;;0.60;0.60;;;4.30;99.90;;;;;;1842902;76;27133;-91
2023/10/21 09:15:57;;;;;;;4.53;1.40;;;4.20;99.90;;;;;;2038931;69;26966;-91
2023/10/21 09:18:59;;;;;;;0.70;0.50;;;4.30;99.90;;;;;;2007115;69;25240;-91
2023/10/21 09:21:49;;;;;;;1.97;0.80;;;4.30;99.90;;;;;;2027841;70;25270;-91
2023/10/21 09:39:43;;;;;;;0.63;0.63;;;4.30;99.90;;;;;;2025092;69;26338;-90
2023/10/21 09:42:31;;;;;;;8.27;0.80;;;4.50;99.90;;;;;;1976928;72;25711;-90
2023/10/21 09:45:21;;;;;;;1.40;1.10;;;4.40;99.90;;;;;;1951071;73;25364;-90
2023/10/21 10:19:41;;;;;;;4.10;1.10;;;4.40;99.90;;;;;;1994525;71;26391;-91
2023/10/21 10:22:32;;;;;;;1.60;0.87;;;4.30;99.90;;;;;;1961181;72;25530;-91
2023/10/21 10:25:28;;;;;;;2.40;1.00;;;4.30;99.90;;;;;;2034072;69;25711;-92
2023/10/21 10:28:19;;;;;;;0.83;0.50;;;4.30;99.90;;;;;;2050473;69;25150;-92
2023/10/21 10:31:09;;;;;;;9.03;1.40;;;4.20;99.90;;;;;;2037620;69;25220;-91
2023/10/21 10:33:59;;;;;;;3.30;1.20;;;4.10;99.90;;;;;;2039825;69;25290;-92
2023/10/21 10:52:28;;;;;;;3.30;1.10;;;3.90;99.90;;;;;;1891003;74;26378;-90
2023/10/21 10:55:19;;;;;;;5.27;1.57;;;3.50;99.90;;;;;;1845126;77;25718;-89
2023/10/21 10:58:07;;;;;;;6.13;1.50;;;3.40;99.90;;;;;;1848458;76;25256;-89
2023/10/21 11:00:56;;;;;;;1.07;0.90;;;3.40;99.90;;;;;;1844246;77;25751;-89
2023/10/21 11:06:39;;;;;;;4.43;1.40;;;3.30;99.90;;;;;;1943205;72;27403;-91
2023/10/21 11:09:30;;;;;;;8.80;1.67;;;3.30;99.90;;;;;;1936599;73;25269;-91
2023/10/21 11:12:19;;;;;;;2.67;1.20;;;3.20;99.90;;;;;;1935528;72;25367;-91
2023/10/21 11:15:12;;;;;;;5.30;1.20;;;3.20;99.90;;;;;;1926649;73;25828;-90
2023/10/21 11:18:00;;;;;;;2.40;1.20;;;3.20;99.90;;;;;;1928184;73;25256;-91
2023/10/21 11:20:50;;;;;;;3.23;1.60;;;3.20;99.90;;;;;;1935593;73;26386;-90
2023/10/21 11:23:39;;;;;;;1.90;1.10;;;3.20;99.90;;;;;;1923541;73;25308;-90
2023/10/21 11:26:28;;;;;;;1.57;1.20;;;3.30;99.90;;;;;;1937520;73;25674;-91
2023/10/21 11:29:18;;;;;;;1.13;1.03;;;3.30;99.90;;;;;;1882794;75;25637;-91
2023/10/21 11:32:11;;;;;;;3.57;0.87;;;3.30;99.90;;;;;;1869202;75;25699;-91
2023/10/21 11:35:04;;;;;;;1.43;1.00;;;3.30;99.90;;;;;;1895295;73;25877;-91
2023/10/21 11:37:55;;;;;;;3.17;1.17;;;3.20;99.90;;;;;;1936325;73;25233;-91
2023/10/21 11:40:42;;;;;;;3.47;1.53;;;3.20;99.90;;;;;;1933194;73;25332;-91
2023/10/21 11:43:35;;;;;;;4.03;1.03;;;3.20;99.90;;;;;;1914963;74;25249;-91
2023/10/21 11:46:21;;;;;;;8.43;1.23;;;3.30;99.90;;;;;;1917502;74;25721;-91
2023/10/21 11:49:14;;;;;;;1.60;1.27;;;3.30;99.90;;;;;;1923412;74;25235;-91
2023/10/21 11:55:20;;;;;;;5.37;1.83;;;3.30;99.90;;;;;;1949340;72;26995;-92
2023/10/21 12:13:55;;;;;;;5.53;1.27;;;3.30;99.90;;;;;;1879123;71;25258;-90
2023/10/21 12:17:00;;;;;;;4.80;1.00;;;3.30;99.90;;;;;;1939119;73;25278;-90
2023/10/21 12:19:50;;;;;;;2.53;1.30;;;3.30;99.90;;;;;;1953222;72;25700;-91
2023/10/21 12:23:10;;;;;;;1.80;1.00;;;3.20;99.90;;;;;;1936275;73;25282;-91
2023/10/21 12:29:45;;;;;;;3.33;1.27;;;3.20;99.90;;;;;;1984501;71;25322;-91
2023/10/21 12:35:47;;;;;;;6.00;1.80;;;3.30;99.90;;;;;;1941890;72;25186;-90
2023/10/21 12:38:38;;;;;;;4.37;1.13;;;3.20;99.90;;;;;;1938810;73;25857;-91
2023/10/21 12:41:26;;;;;;;2.13;1.00;;;3.30;99.90;;;;;;1956074;72;25622;-90
2023/10/21 12:51:28;;;;;;;9.17;1.93;;;3.20;99.90;;;;;;1971890;71;26328;-92
2023/10/21 12:54:16;;;;;;;3.80;1.37;;;3.30;99.90;;;;;;1991855;70;25213;-92
2023/10/21 12:57:07;;;;;;;5.27;1.40;;;3.30;99.90;;;;;;1997853;69;25219;-92
2023/10/21 12:59:55;;;;;;;2.60;1.73;;;3.30;99.90;;;;;;1988722;70;25645;-92
2023/10/21 13:02:43;;;;;;;2.47;1.53;;;3.20;99.90;;;;;;1985272;70;25158;-92
2023/10/21 13:05:32;;;;;;;4.37;1.27;;;3.30;99.90;;;;;;1982827;70;25156;-92
2023/10/21 13:08:21;;;;;;;7.40;1.60;;;3.30;99.90;;;;;;1979596;71;25282;-92
2023/10/21 13:24:19;;;;;;;7.20;1.63;;;3.30;99.90;;;;;;2047354;69;27046;-93
2023/10/21 14:08:38;;;;;;;5.13;1.50;;;3.20;99.90;;;;;;1767119;80;27143;-91
2023/10/21 14:24:49;;;;;;;3.53;1.23;;;3.10;99.90;;;;;;1886648;74;27084;-93
2023/10/21 19:20:08;;;;;;;1.17;0.53;;;3.20;99.90;;;;;;1940754;72;27170;-90
2023/10/21 19:22:57;;;;;;;3.67;2.70;;;3.30;99.90;;;;;;1910092;73;25216;-89
2023/10/21 19:28:30;;;;;;;1.00;0.93;;;3.20;99.90;;;;;;1919733;72;27120;-89
2023/10/21 19:34:03;;;;;;;0.60;0.60;;;3.20;99.90;;;;;;1950781;70;28235;-89
2023/10/21 19:36:51;;;;;;;0.77;0.50;;;3.10;99.90;;;;;;1923700;73;25416;-89
2023/10/21 19:39:40;;;;;;;0.60;0.60;;;3.20;99.90;;;;;;1918377;74;25767;-89
2023/10/21 19:42:29;;;;;;;1.53;0.83;;;3.20;99.90;;;;;;1913141;73;25207;-89
2023/10/21 19:47:59;;;;;;;1.07;1.00;;;3.20;99.90;;;;;;1931508;74;27170;-89
2023/10/21 19:50:48;;;;;;;0.53;0.53;;;3.20;99.90;;;;;;1939182;73;26010;-89
2023/10/21 19:53:36;;;;;;;0.60;0.60;;;3.20;99.90;;;;;;1931654;73;25209;-89
2023/10/21 19:56:26;;;;;;;1.00;0.77;;;3.20;99.90;;;;;;1933621;73;25239;-88
2023/10/21 19:59:15;;;;;;;1.70;1.17;;;3.20;99.90;;;;;;1918417;73;25224;-88
2023/10/21 20:02:03;;;;;;;0.70;0.70;;;3.20;99.90;;;;;;1928232;73;25634;-88
2023/10/21 20:04:53;;;;;;;0.50;0.50;;;3.20;99.90;;;;;;1932371;73;25216;-88
2023/10/21 20:07:41;;;;;;;1.17;0.80;;;3.20;99.90;;;;;;1929997;73;25339;-88
2023/10/21 20:10:30;;;;;;;0.70;0.70;;;3.20;99.90;;;;;;1928938;73;25764;-88
2023/10/21 20:13:19;;;;;;;0.70;0.70;;;3.20;99.90;;;;;;1924144;73;25186;-89
2023/10/21 20:16:09;;;;;;;1.00;0.90;;;3.20;99.90;;;;;;1936762;73;25682;-89
2023/10/21 20:18:57;;;;;;;0.70;0.70;;;3.20;99.90;;;;;;1935203;73;25237;-89
2023/10/21 20:21:46;;;;;;;1.20;0.70;;;3.20;99.90;;;;;;1927557;73;25244;-89
2023/10/21 20:24:35;;;;;;;0.87;0.50;;;3.20;99.90;;;;;;1917013;73;25213;-89
2023/10/21 20:27:23;;;;;;;0.67;0.60;;;3.20;99.90;;;;;;1926948;73;25232;-89
2023/10/21 20:30:13;;;;;;;0.70;0.70;;;3.20;99.90;;;;;;1939383;73;25681;-89
2023/10/21 20:33:02;;;;;;;0.73;0.73;;;3.30;99.90;;;;;;1930499;73;25760;-89
2023/10/21 20:35:52;;;;;;;0.70;0.70;;;3.20;99.90;;;;;;1928790;73;25221;-89
2023/10/21 20:41:20;;;;;;;0.77;0.67;;;3.20;99.90;;;;;;1933074;72;27462;-89
2023/10/21 20:44:09;;;;;;;0.40;0.40;;;3.30;99.90;;;;;;1891110;75;25694;-89
2023/10/21 20:46:57;;;;;;;0.83;0.57;;;3.30;99.90;;;;;;1896563;75;25251;-89
2023/10/21 20:52:27;;;;;;;0.80;0.80;;;3.30;99.90;;;;;;1938955;72;26824;-89
2023/10/21 20:55:16;;;;;;;1.33;0.70;;;3.30;99.90;;;;;;1900007;75;25437;-90
2023/10/21 21:00:46;;;;;;;1.47;0.63;;;3.30;99.90;;;;;;1931415;72;27171;-89
2023/10/21 21:03:35;;;;;;;1.10;0.60;;;3.30;99.90;;;;;;1902446;75;26468;-88
2023/10/21 21:06:24;;;;;;;0.70;0.70;;;3.40;99.90;;;;;;1901321;74;25207;-88
2023/10/21 21:11:53;;;;;;;0.50;0.50;;;3.30;99.90;;;;;;1930567;72;27026;-89
2023/10/21 21:14:43;;;;;;;0.60;0.60;;;3.30;99.90;;;;;;1898523;74;25215;-89
2023/10/21 21:17:31;;;;;;;0.57;0.57;;;3.30;99.90;;;;;;1902757;74;25290;-89
2023/10/21 21:20:20;;;;;;;0.67;0.60;;;3.40;99.90;;;;;;1901793;74;25229;-89
2023/10/21 21:23:13;;;;;;;0.70;0.70;;;3.30;99.90;;;;;;1891655;75;25203;-89
2023/10/21 21:25:59;;;;;;;0.60;0.60;;;3.30;99.90;;;;;;1890385;74;25233;-89
2023/10/21 21:28:48;;;;;;;1.53;0.90;;;3.30;99.90;;;;;;1894150;74;25356;-89
2023/10/21 21:31:37;;;;;;;1.37;0.70;;;3.30;99.90;;;;;;1889773;75;25741;-89
2023/10/21 21:34:26;;;;;;;1.00;0.70;;;3.30;99.90;;;;;;1897482;74;25737;-89
2023/10/21 21:37:15;;;;;;;0.43;0.43;;;3.30;99.90;;;;;;1900766;74;25195;-87
2023/10/21 21:40:04;;;;;;;0.87;0.57;;;3.30;99.90;;;;;;1902954;74;25247;-87
2023/10/21 21:42:53;;;;;;;2.57;0.80;;;3.30;99.90;;;;;;1885661;74;25272;-88
2023/10/21 21:45:42;;;;;;;0.73;0.70;;;3.30;99.90;;;;;;1856761;75;26217;-87
2023/10/21 21:48:30;;;;;;;1.13;0.60;;;3.30;99.90;;;;;;1885568;75;25225;-87
2023/10/21 21:51:19;;;;;;;1.17;0.80;;;3.30;99.90;;;;;;1876852;75;25264;-87
2023/10/21 21:54:09;;;;;;;0.50;0.50;;;3.30;99.90;;;;;;1877624;75;25194;-87
2023/10/21 21:59:37;;;;;;;0.70;0.70;;;3.30;99.90;;;;;;1991496;69;26836;-89
2023/10/21 22:02:27;;;;;;;2.33;0.80;;;3.30;99.90;;;;;;1969428;72;25393;-89
2023/10/21 22:05:16;;;;;;;0.50;0.50;;;3.40;99.90;;;;;;1993111;71;25405;-89
2023/10/21 22:08:06;;;;;;;0.67;0.67;;;3.30;99.90;;;;;;2006845;70;25250;-89
2023/10/21 22:10:55;;;;;;;1.20;0.63;;;3.30;99.90;;;;;;1999504;70;25356;-89
2023/10/21 22:13:43;;;;;;;0.60;0.60;;;3.40;99.90;;;;;;2006117;71;25199;-90
2023/10/21 22:16:32;;;;;;;0.93;0.93;;;3.40;99.90;;;;;;2018072;70;25238;-89
2023/10/21 22:19:21;;;;;;;0.60;0.60;;;3.40;99.90;;;;;;1929660;72;25281;-89
2023/10/21 22:22:11;;;;;;;0.50;0.50;;;3.30;99.90;;;;;;1997389;70;25211;-89
2023/10/21 22:25:05;;;;;;;0.70;0.70;;;3.40;99.90;;;;;;2007954;71;25777;-89
2023/10/21 22:27:51;;;;;;;0.80;0.60;;;3.40;99.90;;;;;;2002621;70;25717;-89
2023/10/21 22:30:41;;;;;;;0.70;0.70;;;3.40;99.90;;;;;;2005124;70;25193;-88
2023/10/21 22:33:29;;;;;;;0.73;0.73;;;3.40;99.90;;;;;;2006857;70;25215;-89
2023/10/21 22:36:18;;;;;;;2.67;0.77;;;3.40;99.90;;;;;;2007975;70;25168;-88
2023/10/21 22:41:46;;;;;;;0.40;0.40;;;3.40;99.90;;;;;;2004008;69;27582;-90
2023/10/21 22:44:35;;;;;;;0.40;0.40;;;3.40;99.90;;;;;;1971479;72;25235;-89
2023/10/21 22:47:23;;;;;;;0.63;0.63;;;3.40;99.90;;;;;;1981610;72;25182;-89
2023/10/21 22:50:12;;;;;;;0.50;0.50;;;3.40;99.90;;;;;;1992258;72;25272;-89
2023/10/21 22:53:04;;;;;;;0.67;0.53;;;3.40;99.90;;;;;;1988349;70;25203;-90
2023/10/21 22:58:32;;;;;;;0.40;0.40;;;3.40;99.90;;;;;;1943799;72;26992;-90
2023/10/21 23:01:21;;;;;;;0.90;0.80;;;3.50;99.90;;;;;;1891143;74;25377;-89
2023/10/21 23:04:09;;;;;;;0.73;0.60;;;3.40;99.90;;;;;;1899825;75;25312;-90
2023/10/21 23:06:58;;;;;;;1.80;0.70;;;3.40;99.90;;;;;;1900826;75;25166;-89
2023/10/21 23:09:49;;;;;;;1.40;0.90;;;3.50;99.90;;;;;;1904094;75;25291;-90
2023/10/21 23:12:36;;;;;;;0.80;0.80;;;3.50;99.90;;;;;;1900846;75;25251;-89
2023/10/21 23:15:25;;;;;;;0.80;0.80;;;3.50;99.90;;;;;;1898979;75;25240;-90
2023/10/21 23:18:13;;;;;;;1.50;0.77;;;3.50;99.90;;;;;;1889086;75;25177;-90
2023/10/21 23:21:02;;;;;;;0.40;0.40;;;3.50;99.90;;;;;;1913484;74;25755;-89
2023/10/21 23:23:52;;;;;;;0.90;0.50;;;3.50;99.90;;;;;;1894857;75;25244;-90
2023/10/21 23:26:41;;;;;;;0.40;0.40;;;3.50;99.90;;;;;;1889507;75;25233;-89
2023/10/21 23:29:29;;;;;;;0.63;0.63;;;3.50;99.90;;;;;;1862509;76;25740;-90
2023/10/21 23:32:17;;;;;;;0.83;0.30;;;3.50;99.90;;;;;;1898753;75;25623;-89
2023/10/21 23:35:08;;;;;;;0.73;0.57;;;3.50;99.90;;;;;;1896538;75;25337;-89
2023/10/21 23:37:56;;;;;;;0.70;0.60;;;3.60;99.90;;;;;;1893826;74;25528;-90
2023/10/21 23:40:47;;;;;;;3.30;0.70;;;3.60;99.90;;;;;;1831478;76;25201;-89
2023/10/21 23:43:35;;;;;;;1.03;0.70;;;3.60;99.90;;;;;;1839623;76;25749;-89
2023/10/21 23:46:25;;;;;;;0.60;0.60;;;3.60;99.90;;;;;;1882260;75;25271;-89
2023/10/21 23:49:14;;;;;;;0.60;0.60;;;3.60;99.90;;;;;;1841665;76;25249;-89
2023/10/21 23:52:02;;;;;;;0.50;0.50;;;3.60;99.90;;;;;;1870044;76;25245;-90
2023/10/21 23:54:51;;;;;;;3.47;0.60;;;3.60;99.90;;;;;;1869046;76;25800;-90
2023/10/21 23:57:41;;;;;;;0.70;0.67;;;3.60;99.90;;;;;;1880151;76;25313;-89
